Time;durP1;ratioP1;P1;durP2;ratioP2;P2;SDS_P1;SDS_P2;PMS_P1;PMS_P2;Temp;Humidity;BMP_temperature;BMP_pressure;BME280_temperature;BME280_humidity;BME280_pressure;Samples;Min_cycle;Max_cycle;Signal;HPM_P1;HPM_P2
2022/12/09 00:01:16;;;;;;;32.50;16.87;;;;;;;1.89;90.55;99791.95;1721594;82;21459;-76
2022/12/09 00:03:43;;;;;;;32.20;16.87;;;;;;;1.89;90.58;99791.95;1725025;83;21028;-76
2022/12/09 00:06:21;;;;;;;32.37;18.77;;;;;;;1.88;90.65;99788.92;1724923;83;21069;-76
2022/12/09 00:08:49;;;;;;;33.00;16.07;;;;;;;1.86;90.65;99787.23;1725006;83;21119;-76
2022/12/09 00:11:17;;;;;;;39.27;22.77;;;;;;;1.87;90.71;99791.11;1725000;83;21025;-76
2022/12/09 00:13:51;;;;;;;42.47;22.70;;;;;;;1.88;90.73;99798.41;1724870;83;21004;-76
2022/12/09 00:16:20;;;;;;;42.80;22.27;;;;;;;1.88;90.70;99792.80;1724287;83;20986;-76
2022/12/09 00:18:47;;;;;;;43.10;22.57;;;;;;;1.88;90.76;99792.80;1724877;83;21493;-76
2022/12/09 00:21:27;;;;;;;37.63;21.97;;;;;;;1.90;90.75;99800.11;1724891;83;21029;-76
2022/12/09 00:23:56;;;;;;;40.52;21.55;;;;;;;1.91;90.82;99799.67;1725093;83;21262;-76
2022/12/09 00:26:25;;;;;;;40.07;21.17;;;;;;;1.93;90.86;99797.93;1724846;83;20918;-76
2022/12/09 00:28:54;;;;;;;38.40;21.07;;;;;;;1.96;90.84;99803.91;1725102;83;21032;-76
2022/12/09 00:31:25;;;;;;;136.47;63.50;;;;;;;1.93;90.83;99802.66;1724882;83;20917;-76
2022/12/09 00:33:56;;;;;;;223.30;93.17;;;;;;;1.95;90.88;99804.80;1724013;83;21048;-76
2022/12/09 00:36:23;;;;;;;;;;;;;;;1.96;90.79;99803.91;1727851;83;21976;-76
2022/12/09 00:38:51;;;;;;;50.30;25.20;;;;;;;1.97;90.74;99804.34;1724825;83;20420;-76
2022/12/09 00:41:18;;;;;;;53.63;26.03;;;;;;;1.95;90.70;99806.09;1725137;83;21009;-76
2022/12/09 00:43:47;;;;;;;47.67;24.70;;;;;;;1.97;90.80;99803.50;1724853;83;21017;-76
2022/12/09 00:46:15;;;;;;;40.60;21.67;;;;;;;1.98;90.80;99809.92;1725124;83;21037;-76
2022/12/09 00:48:44;;;;;;;33.83;17.33;;;;;;;1.99;90.86;99811.63;1724864;83;21123;-76
2022/12/09 00:51:16;;;;;;;35.23;16.80;;;;;;;2.00;90.80;99814.65;1725051;83;21029;-76
2022/12/09 00:53:43;;;;;;;31.30;18.43;;;;;;;2.00;90.87;99822.41;1724908;83;21028;-76
2022/12/09 00:56:10;;;;;;;32.50;18.63;;;;;;;2.00;90.89;99823.70;1725236;83;21522;-76
2022/12/09 00:58:38;;;;;;;35.07;19.20;;;;;;;2.00;90.84;99825.44;1724860;83;21507;-76
2022/12/09 01:01:05;;;;;;;35.77;19.70;;;;;;;1.99;90.76;99827.13;1725212;83;21181;-76
2022/12/09 01:03:32;;;;;;;37.27;19.70;;;;;;;1.97;90.79;99826.77;1725137;83;21037;-77
2022/12/09 01:05:59;;;;;;;35.10;18.70;;;;;;;1.96;90.84;99828.47;1725450;83;21462;-76
2022/12/09 01:08:26;;;;;;;36.10;19.20;;;;;;;1.95;90.88;99825.91;1725107;83;21020;-77
2022/12/09 01:10:54;;;;;;;34.47;19.30;;;;;;;1.95;90.98;99824.63;1725237;83;21267;-76
2022/12/09 01:13:21;;;;;;;35.80;19.33;;;;;;;1.95;90.96;99820.74;1725119;83;21515;-76
2022/12/09 01:15:48;;;;;;;32.33;19.10;;;;;;;1.94;90.96;99816.02;1725225;83;20993;-76
2022/12/09 01:18:15;;;;;;;29.63;18.17;;;;;;;1.92;90.96;99820.34;1725189;83;21507;-77
2022/12/09 01:20:42;;;;;;;34.90;19.53;;;;;;;1.93;91.09;99819.90;1725140;83;21002;-76
2022/12/09 01:23:09;;;;;;;36.53;20.20;;;;;;;1.91;90.98;99817.34;1725422;83;21426;-76
2022/12/09 01:25:38;;;;;;;32.30;18.40;;;;;;;1.92;91.09;99820.78;1725090;83;21233;-76
2022/12/09 01:28:05;;;;;;;30.83;18.27;;;;;;;1.92;91.22;99824.66;1725396;83;21021;-76
2022/12/09 01:30:32;;;;;;;30.73;17.93;;;;;;;1.91;91.25;99813.47;1725147;83;21295;-76
2022/12/09 01:32:59;;;;;;;31.80;18.37;;;;;;;1.90;91.30;99814.33;1725416;83;21021;-76
2022/12/09 01:35:27;;;;;;;29.40;17.47;;;;;;;1.92;91.52;99816.46;1725180;82;21404;-76
2022/12/09 01:37:54;;;;;;;35.57;18.10;;;;;;;1.95;91.57;99815.58;1725119;83;21119;-76
2022/12/09 01:40:21;;;;;;;32.00;17.83;;;;;;;1.96;91.61;99814.69;1725006;83;21029;-76
2022/12/09 01:42:50;;;;;;;29.70;17.83;;;;;;;1.97;91.71;99813.84;1725452;83;20988;-77
2022/12/09 01:45:29;;;;;;;26.77;16.83;;;;;;;1.98;91.83;99811.22;1725100;83;21447;-76
2022/12/09 01:48:06;;;;;;;28.37;17.40;;;;;;;2.01;91.80;99815.50;1724110;83;21008;-77
2022/12/09 01:50:35;;;;;;;31.33;17.13;;;;;;;2.00;91.78;99817.67;1722221;83;21016;-76
2022/12/09 01:53:02;;;;;;;31.50;17.87;;;;;;;2.01;91.83;99820.23;1725334;83;21008;-76
2022/12/09 01:55:30;;;;;;;32.70;18.13;;;;;;;1.99;91.70;99817.23;1725163;83;20993;-76
2022/12/09 01:57:58;;;;;;;31.20;18.07;;;;;;;1.97;91.73;99818.56;1725442;83;21077;-77
2022/12/09 02:00:25;;;;;;;33.97;18.87;;;;;;;1.96;91.77;99807.78;1725027;83;21040;-76
2022/12/09 02:02:54;;;;;;;28.50;17.40;;;;;;;1.93;91.72;99814.28;1725124;83;21147;-76
2022/12/09 02:05:23;;;;;;;31.73;18.47;;;;;;;1.92;91.83;99815.61;1725131;83;21573;-76
2022/12/09 02:07:52;;;;;;;33.00;18.00;;;;;;;1.91;91.98;99817.34;1725281;83;20982;-76
2022/12/09 02:10:20;;;;;;;28.67;17.53;;;;;;;1.88;91.84;99813.48;1725025;83;21017;-76
2022/12/09 02:13:34;;;;;;;32.13;17.73;;;;;;;1.83;91.75;99810.52;1724873;83;21280;-76
2022/12/09 02:16:06;;;;;;;29.48;16.57;;;;;;;1.80;91.95;99812.70;1725297;83;21096;-76
2022/12/09 02:18:44;;;;;;;32.40;17.10;;;;;;;1.79;92.11;99813.59;1725071;83;21020;-76
2022/12/09 02:21:22;;;;;;;31.20;17.20;;;;;;;1.80;92.25;99815.28;1723641;83;21541;-76
2022/12/09 02:24:28;;;;;;;29.10;17.07;;;;;;;1.81;92.35;99821.34;1725318;83;21025;-77
2022/12/09 02:27:19;;;;;;;28.93;16.83;;;;;;;1.77;92.25;99819.20;1725211;83;21277;-77
2022/12/09 02:30:16;;;;;;;34.03;17.77;;;;;;;1.72;92.37;99815.83;1725070;83;21386;-76
2022/12/09 02:33:16;;;;;;;30.47;17.43;;;;;;;1.69;92.42;99814.55;1725282;83;21558;-76
2022/12/09 02:35:54;;;;;;;33.37;19.20;;;;;;;1.68;92.64;99811.55;1725062;83;21488;-76
2022/12/09 02:38:32;;;;;;;30.30;17.13;;;;;;;1.70;93.01;99812.41;1725433;83;20994;-76
2022/12/09 02:41:18;;;;;;;29.67;17.10;;;;;;;1.70;92.98;99804.21;1725055;83;21028;-76
2022/12/09 02:43:55;;;;;;;27.97;17.40;;;;;;;1.71;93.24;99805.91;1725050;83;21796;-76
2022/12/09 02:46:24;;;;;;;30.63;16.63;;;;;;;1.74;93.32;99806.31;1725034;83;21020;-76
2022/12/09 02:48:56;;;;;;;27.87;16.83;;;;;;;1.75;93.39;99806.75;1725307;83;21005;-76
2022/12/09 02:51:28;;;;;;;31.90;16.05;;;;;;;1.77;93.45;99803.70;1725287;83;21012;-76
2022/12/09 02:54:02;;;;;;;33.40;17.60;;;;;;;1.77;93.42;99810.16;1725454;83;21506;-77
2022/12/09 02:56:32;;;;;;;33.50;18.10;;;;;;;1.75;93.33;99811.48;1725232;83;21142;-77
2022/12/09 02:58:59;;;;;;;32.97;18.60;;;;;;;1.75;93.37;99810.63;1725438;83;21032;-77
2022/12/09 03:01:41;;;;;;;31.27;16.47;;;;;;;1.75;93.43;99807.61;1725179;83;21498;-77
2022/12/09 03:04:13;;;;;;;30.10;17.13;;;;;;;1.77;93.47;99806.28;1725464;83;21009;-77
2022/12/09 03:06:54;;;;;;;34.30;17.40;;;;;;;1.77;93.55;99807.58;1724749;83;21071;-77
2022/12/09 03:09:32;;;;;;;28.80;17.37;;;;;;;1.77;93.59;99799.82;1723245;83;21137;-77
2022/12/09 03:12:03;;;;;;;36.60;19.33;;;;;;;1.77;93.60;99804.98;1725222;82;21036;-77
2022/12/09 03:14:47;;;;;;;47.37;23.33;;;;;;;1.75;93.58;99795.13;1725031;83;21056;-78
2022/12/09 03:17:23;;;;;;;37.30;20.40;;;;;;;1.74;93.45;99805.88;1725084;83;21024;-77
2022/12/09 03:19:58;;;;;;;32.03;18.33;;;;;;;1.72;93.49;99802.92;1725102;83;21009;-78
2022/12/09 03:22:28;;;;;;;28.97;16.67;;;;;;;1.69;93.61;99797.75;1725219;83;21134;-77
2022/12/09 03:24:58;;;;;;;;;;;;;;;1.70;93.84;99800.34;1727718;83;21024;-77
2022/12/09 03:27:30;;;;;;;32.42;19.27;;;;;;;1.71;93.91;99794.28;1725323;83;20212;-77
2022/12/09 03:29:59;;;;;;;33.37;18.87;;;;;;;1.71;93.90;99797.31;1725039;83;21070;-77
2022/12/09 03:32:29;;;;;;;31.48;18.05;;;;;;;1.71;94.07;99793.44;1725702;83;21538;-77
2022/12/09 03:35:02;;;;;;;29.42;16.73;;;;;;;1.73;94.28;99787.83;1725331;83;21115;-77
2022/12/09 03:37:30;;;;;;;26.53;16.40;;;;;;;1.73;94.11;99784.80;1724102;83;21518;-78
2022/12/09 03:39:59;;;;;;;25.83;15.67;;;;;;;1.73;94.17;99780.92;1725279;83;21032;-77
2022/12/09 03:42:32;;;;;;;28.27;17.43;;;;;;;1.73;94.23;99782.66;1725457;83;20956;-77
2022/12/09 03:45:08;;;;;;;29.47;16.70;;;;;;;1.74;94.35;99786.50;1725000;83;21016;-77
2022/12/09 03:47:35;;;;;;;27.43;15.73;;;;;;;1.75;94.35;99786.94;1725552;82;21913;-77
2022/12/09 03:50:05;;;;;;;26.40;15.60;;;;;;;1.75;94.28;99784.80;1725094;83;21601;-78
2022/12/09 03:52:40;;;;;;;26.73;16.17;;;;;;;1.72;94.31;99785.68;1725453;83;21049;-77
2022/12/09 03:55:38;;;;;;;26.93;15.70;;;;;;;1.72;94.43;99783.09;1725260;83;21036;-77
2022/12/09 03:58:07;;;;;;;27.87;16.73;;;;;;;1.74;94.54;99788.23;1679318;84;21882;-77
2022/12/09 04:00:36;;;;;;;29.87;17.63;;;;;;;1.72;94.67;99779.22;1678988;84;21139;-77
2022/12/09 04:03:05;;;;;;;25.17;15.80;;;;;;;1.73;94.72;99783.95;1672702;84;21485;-77
2022/12/09 04:05:33;;;;;;;22.67;14.97;;;;;;;1.73;94.75;99785.23;1672775;84;21045;-77
2022/12/09 04:08:00;;;;;;;27.80;16.30;;;;;;;1.73;94.87;99783.50;1672838;84;21067;-77
2022/12/09 04:10:27;;;;;;;34.03;17.67;;;;;;;1.75;94.99;99786.94;1672760;84;21038;-77
2022/12/09 04:12:54;;;;;;;33.50;19.80;;;;;;;1.77;95.05;99788.19;1672754;84;21960;-77
2022/12/09 04:15:21;;;;;;;34.03;18.83;;;;;;;1.78;95.03;99781.73;1672643;84;21026;-77
2022/12/09 04:17:48;;;;;;;35.60;20.70;;;;;;;1.80;94.96;99781.70;1672878;84;21054;-77
2022/12/09 04:20:15;;;;;;;33.30;18.77;;;;;;;1.79;94.92;99786.02;1672821;84;21046;-77
2022/12/09 04:22:42;;;;;;;31.73;17.73;;;;;;;1.79;94.82;99781.29;1672839;84;21543;-77
2022/12/09 04:25:09;;;;;;;28.93;16.57;;;;;;;1.75;94.69;99785.64;1672735;84;21131;-77
2022/12/09 04:27:36;;;;;;;33.23;18.70;;;;;;;1.71;94.73;99783.95;1672837;84;21046;-77
2022/12/09 04:30:05;;;;;;;25.57;15.73;;;;;;;1.69;94.87;99781.84;1672826;84;21500;-77
2022/12/09 04:32:32;;;;;;;28.43;16.73;;;;;;;1.70;95.05;99783.54;1672718;84;21127;-76
2022/12/09 04:34:59;;;;;;;27.20;18.10;;;;;;;1.72;95.25;99787.41;1698450;83;21052;-76
2022/12/09 04:37:26;;;;;;;29.90;18.50;;;;;;;1.73;95.20;99789.11;1710812;82;21145;-76
2022/12/09 04:39:53;;;;;;;34.90;19.70;;;;;;;1.74;95.20;99790.81;1710965;83;21532;-80
2022/12/09 04:42:20;;;;;;;31.80;18.77;;;;;;;1.74;95.16;99790.81;1710872;83;21028;-76
2022/12/09 04:44:47;;;;;;;32.17;18.77;;;;;;;1.74;95.14;99790.38;1711079;83;21028;-77
2022/12/09 04:47:14;;;;;;;28.43;18.67;;;;;;;1.74;95.19;99790.81;1710878;83;21521;-77
2022/12/09 04:49:41;;;;;;;29.37;18.13;;;;;;;1.75;95.22;99802.87;1710989;82;21073;-77
2022/12/09 04:52:08;;;;;;;33.10;18.77;;;;;;;1.74;95.18;99803.73;1710767;82;21059;-76
2022/12/09 04:54:36;;;;;;;32.03;19.27;;;;;;;1.73;95.15;99804.17;1710711;83;21048;-77
2022/12/09 04:57:03;;;;;;;31.77;18.17;;;;;;;1.73;95.15;99802.03;1711102;83;21541;-76
2022/12/09 04:59:31;;;;;;;28.87;18.07;;;;;;;1.72;95.13;99806.35;1711129;83;21265;-76
2022/12/09 05:02:01;;;;;;;30.87;19.30;;;;;;;1.72;95.22;99807.64;1710711;82;21129;-77
2022/12/09 05:04:28;;;;;;;31.73;18.50;;;;;;;1.71;95.20;99807.20;1711111;83;20964;-76
2022/12/09 05:06:55;;;;;;;31.37;18.73;;;;;;;1.70;95.30;99802.92;1710757;82;21024;-76
2022/12/09 05:09:22;;;;;;;28.90;17.70;;;;;;;1.71;95.38;99796.02;1710936;83;21016;-76
2022/12/09 05:11:50;;;;;;;27.77;18.03;;;;;;;1.70;95.33;99807.23;1710729;83;21035;-77
2022/12/09 05:14:18;;;;;;;29.03;18.20;;;;;;;1.70;95.39;99804.66;1711149;83;21068;-76
2022/12/09 05:16:45;;;;;;;29.33;17.37;;;;;;;1.70;95.38;99808.09;1710688;82;21033;-76
2022/12/09 05:19:12;;;;;;;28.40;17.50;;;;;;;1.71;95.53;99802.03;1711083;83;21057;-77
2022/12/09 05:21:39;;;;;;;28.60;17.50;;;;;;;1.73;95.62;99796.42;1710869;83;21024;-77
2022/12/09 05:24:09;;;;;;;29.03;17.87;;;;;;;1.74;95.49;99804.58;1711001;83;21025;-86
2022/12/09 05:26:36;;;;;;;32.45;19.60;;;;;;;1.73;95.41;99806.76;1710990;83;21165;-77
2022/12/09 05:29:04;;;;;;;30.47;17.60;;;;;;;1.72;95.38;99813.25;1710969;83;21040;-77
2022/12/09 05:31:31;;;;;;;28.17;17.20;;;;;;;1.71;95.38;99810.23;1710765;82;21040;-76
2022/12/09 05:33:58;;;;;;;30.67;18.07;;;;;;;1.70;95.43;99812.41;1711081;83;21032;-76
2022/12/09 05:36:26;;;;;;;28.97;17.17;;;;;;;1.68;95.38;99809.82;1710827;83;21084;-76
2022/12/09 05:38:54;;;;;;;28.37;17.10;;;;;;;1.67;95.40;99805.53;1711003;82;21004;-76
2022/12/09 05:41:23;;;;;;;27.87;16.70;;;;;;;1.68;95.49;99802.52;1710738;83;21060;-76
2022/12/09 05:43:51;;;;;;;33.23;18.93;;;;;;;1.67;95.50;99800.81;1711055;82;21089;-77
2022/12/09 05:46:19;;;;;;;30.63;17.13;;;;;;;1.68;95.50;99803.80;1710804;83;21048;-76
2022/12/09 05:48:46;;;;;;;25.87;16.90;;;;;;;1.67;95.54;99802.11;1711117;83;22200;-77
2022/12/09 05:51:23;;;;;;;28.50;17.60;;;;;;;1.66;95.57;99800.38;1710770;83;21274;-76
2022/12/09 05:53:52;;;;;;;29.67;18.07;;;;;;;1.66;95.66;99802.95;1706985;83;21570;-76
2022/12/09 05:56:21;;;;;;;34.47;19.60;;;;;;;1.65;95.64;99802.55;1710858;83;21569;-76
2022/12/09 05:58:49;;;;;;;33.57;18.80;;;;;;;1.64;95.61;99806.02;1710984;83;21031;-74
2022/12/09 06:01:16;;;;;;;32.93;19.33;;;;;;;1.63;95.70;99802.98;1734638;81;21044;-74
2022/12/09 06:03:46;;;;;;;32.73;18.97;;;;;;;1.61;95.69;99805.61;1734612;82;21090;-75
2022/12/09 06:06:16;;;;;;;30.60;18.37;;;;;;;1.62;95.72;99812.91;1739359;82;21362;-75
2022/12/09 06:08:45;;;;;;;28.35;17.37;;;;;;;1.61;95.73;99810.77;1739399;81;21024;-76
2022/12/09 06:11:19;;;;;;;35.47;20.60;;;;;;;1.61;95.77;99820.22;1738978;81;21122;-76
2022/12/09 06:13:47;;;;;;;33.37;20.00;;;;;;;1.61;95.87;99815.94;1739856;81;21035;-76
2022/12/09 06:16:17;;;;;;;32.67;19.07;;;;;;;1.63;95.96;99825.80;1739480;81;21690;-76
2022/12/09 06:18:45;;;;;;;30.17;17.23;;;;;;;1.63;95.93;99815.47;1739144;81;20952;-76
2022/12/09 06:21:14;;;;;;;33.70;19.47;;;;;;;1.63;95.97;99814.17;1739070;82;21012;-76
2022/12/09 06:23:42;;;;;;;43.90;24.43;;;;;;;1.63;95.91;99809.01;1738692;81;21036;-76
2022/12/09 06:26:25;;;;;;;41.13;23.00;;;;;;;1.63;95.94;99812.88;1739481;82;21461;-76
2022/12/09 06:28:53;;;;;;;59.20;30.83;;;;;;;1.63;95.94;99806.86;1737781;81;21124;-76
2022/12/09 06:31:21;;;;;;;47.00;25.03;;;;;;;1.63;96.05;99809.45;1722845;82;21025;-76
2022/12/09 06:33:48;;;;;;;37.90;21.97;;;;;;;1.63;96.10;99809.45;1738715;81;21032;-76
2022/12/09 06:36:15;;;;;;;30.30;18.80;;;;;;;1.63;96.20;99809.45;1739884;82;21091;-75
2022/12/09 06:38:42;;;;;;;31.60;18.63;;;;;;;1.61;96.19;99806.90;1739405;81;21326;-76
2022/12/09 06:41:13;;;;;;;31.60;18.57;;;;;;;1.62;96.28;99807.75;1739630;82;21964;-76
2022/12/09 06:43:40;;;;;;;32.87;19.43;;;;;;;1.60;96.18;99809.48;1739252;82;21549;-76
2022/12/09 06:46:18;;;;;;;33.30;19.33;;;;;;;1.58;96.23;99813.39;1738443;81;21008;-76
2022/12/09 06:48:46;;;;;;;40.90;20.80;;;;;;;1.59;96.24;99813.80;1739261;81;21029;-76
2022/12/09 06:51:14;;;;;;;38.40;21.53;;;;;;;1.57;96.27;99815.53;1739390;82;21020;-76
2022/12/09 06:53:41;;;;;;;29.43;18.87;;;;;;;1.56;96.27;99806.94;1739608;81;21188;-75
2022/12/09 06:56:10;;;;;;;31.03;18.67;;;;;;;1.57;96.37;99803.91;1739477;81;21670;-75
2022/12/09 06:58:38;;;;;;;42.27;22.13;;;;;;;1.60;96.48;99807.75;1739516;82;21400;-75
2022/12/09 07:01:12;;;;;;;31.53;19.07;;;;;;;1.61;96.40;99811.18;1739544;81;21075;-76
2022/12/09 07:03:37;;;;;;;43.83;23.27;;;;;;;1.58;96.36;99809.52;1739513;81;21573;-76
2022/12/09 07:06:06;;;;;;;82.80;37.73;;;;;;;1.55;96.17;99814.69;1699308;81;21211;-75
2022/12/09 07:08:33;;;;;;;76.87;37.33;;;;;;;1.52;96.19;99820.77;1750265;81;21075;-75
2022/12/09 07:11:00;;;;;;;62.30;31.73;;;;;;;1.52;96.28;99824.64;1754139;81;21446;-75
2022/12/09 07:13:27;;;;;;;44.93;24.83;;;;;;;1.51;96.18;99822.91;1753925;81;21068;-75
2022/12/09 07:15:54;;;;;;;44.20;24.67;;;;;;;1.49;96.22;99824.64;1748716;81;21507;-78
2022/12/09 07:18:21;;;;;;;44.47;24.67;;;;;;;1.49;96.38;99819.47;1740910;81;21503;-78
2022/12/09 07:20:48;;;;;;;56.17;27.60;;;;;;;1.51;96.43;99827.22;1753448;81;21080;-81
2022/12/09 07:23:15;;;;;;;48.83;26.33;;;;;;;1.50;96.40;99823.79;1754216;81;21495;-75
2022/12/09 07:25:42;;;;;;;48.50;26.13;;;;;;;1.51;96.43;99828.07;1738433;81;21456;-77
2022/12/09 07:28:09;;;;;;;71.07;32.83;;;;;;;1.51;96.41;99822.91;1741039;81;21496;-75
2022/12/09 07:30:37;;;;;;;59.90;29.83;;;;;;;1.52;96.57;99828.92;1752021;81;21084;-78
2022/12/09 07:33:04;;;;;;;49.93;26.73;;;;;;;1.53;96.62;99828.92;1730155;81;21075;-78
2022/12/09 07:35:31;;;;;;;53.13;27.57;;;;;;;1.56;96.53;99830.63;1725944;81;21028;-78
2022/12/09 07:37:59;;;;;;;52.93;29.57;;;;;;;1.58;96.58;99837.93;1729432;81;21035;-77
2022/12/09 07:40:28;;;;;;;101.60;45.80;;;;;;;1.60;96.68;99836.61;1728492;81;21032;-77
2022/12/09 07:42:55;;;;;;;94.33;38.67;;;;;;;1.61;96.70;99835.31;1740957;81;21977;-76
2022/12/09 07:45:23;;;;;;;87.30;35.93;;;;;;;1.62;96.59;99838.75;1742783;81;21032;-77
2022/12/09 07:47:50;;;;;;;48.10;24.23;;;;;;;1.62;96.49;99834.43;1745164;81;21484;-76
2022/12/09 07:50:17;;;;;;;55.03;29.50;;;;;;;1.65;96.54;99836.13;1753768;81;21509;-76
2022/12/09 07:52:44;;;;;;;47.87;26.13;;;;;;;1.65;96.45;99838.27;1753376;81;21501;-76
2022/12/09 07:55:11;;;;;;;43.17;22.97;;;;;;;1.67;96.37;99829.23;1753413;81;21192;-75
2022/12/09 07:57:38;;;;;;;37.47;20.67;;;;;;;1.70;96.35;99822.30;1753216;81;21518;-75
2022/12/09 08:00:07;;;;;;;33.17;20.70;;;;;;;1.73;96.38;99826.13;1753457;81;21495;-74
2022/12/09 08:02:36;;;;;;;;;;;;;;;1.76;96.39;99829.98;1756156;81;21497;-76
2022/12/09 08:05:04;;;;;;;74.40;40.20;;;;;;;1.78;96.32;99825.66;1738227;81;20495;-76
2022/12/09 08:07:32;;;;;;;62.03;35.10;;;;;;;1.81;96.35;99830.38;1726536;81;21364;-77
2022/12/09 08:10:01;;;;;;;41.23;23.23;;;;;;;1.84;96.43;99838.95;1727834;81;21040;-75
2022/12/09 08:12:29;;;;;;;34.70;19.90;;;;;;;1.86;96.36;99838.50;1726422;81;21040;-75
2022/12/09 08:14:56;;;;;;;39.37;22.23;;;;;;;1.86;96.24;99837.22;1723501;81;21020;-77
2022/12/09 08:17:25;;;;;;;48.57;24.73;;;;;;;1.89;96.23;99841.50;1728923;81;21596;-71
2022/12/09 08:19:53;;;;;;;41.03;21.10;;;;;;;1.89;96.15;99838.47;1726871;81;21149;-85
2022/12/09 08:22:20;;;;;;;37.57;21.10;;;;;;;1.91;96.23;99847.48;1731152;81;21070;-76
2022/12/09 08:24:47;;;;;;;35.87;21.30;;;;;;;1.94;96.33;99850.91;1730931;81;21509;-76
2022/12/09 08:27:16;;;;;;;76.17;41.63;;;;;;;1.95;96.03;99847.88;1730028;81;20953;-76
2022/12/09 08:29:43;;;;;;;59.80;34.37;;;;;;;1.94;96.03;99847.03;1728513;81;21056;-76
2022/12/09 08:32:10;;;;;;;34.67;21.23;;;;;;;1.96;96.09;99842.68;1725082;81;21109;-76
2022/12/09 08:34:38;;;;;;;32.30;20.03;;;;;;;1.93;95.93;99845.74;1723768;81;22028;-75
2022/12/09 08:37:05;;;;;;;31.43;19.33;;;;;;;1.93;96.08;99842.72;1725030;81;20925;-75
2022/12/09 08:39:32;;;;;;;30.23;17.70;;;;;;;1.94;95.99;99850.03;1722983;81;21500;-75
2022/12/09 08:41:59;;;;;;;37.13;22.30;;;;;;;1.93;95.93;99847.88;1722434;81;21040;-75
2022/12/09 08:44:26;;;;;;;95.20;52.53;;;;;;;1.96;96.11;99850.88;1726801;81;21193;-76
2022/12/09 08:46:53;;;;;;;59.87;32.67;;;;;;;2.00;96.07;99847.41;1723840;81;21021;-76
2022/12/09 08:49:21;;;;;;;54.87;35.10;;;;;;;2.04;96.14;99845.62;1730923;81;21032;-77
2022/12/09 08:51:51;;;;;;;42.63;27.90;;;;;;;2.08;96.07;99851.17;1736094;81;21064;-77
2022/12/09 08:54:18;;;;;;;60.43;37.03;;;;;;;2.08;95.91;99852.46;1743942;81;21016;-78
2022/12/09 08:56:47;;;;;;;48.57;31.27;;;;;;;2.09;95.92;99855.48;1738433;81;22337;-77
2022/12/09 08:59:15;;;;;;;44.83;29.23;;;;;;;2.11;95.98;99858.92;1733473;81;21036;-77
2022/12/09 09:01:42;;;;;;;32.43;18.80;;;;;;;2.13;96.06;99861.03;1736297;81;21306;-76
2022/12/09 09:04:13;;;;;;;25.80;16.70;;;;;;;2.14;96.04;99864.91;1736040;81;21059;-76
2022/12/09 09:06:43;;;;;;;28.17;16.83;;;;;;;2.16;96.18;99861.88;1734700;81;21079;-77
2022/12/09 09:09:12;;;;;;;24.92;16.57;;;;;;;2.21;96.10;99864.38;1729742;81;21533;-76
2022/12/09 09:11:40;;;;;;;24.60;15.43;;;;;;;2.22;96.04;99862.23;1737620;81;21044;-78
2022/12/09 09:14:09;;;;;;;27.23;16.93;;;;;;;2.24;95.98;99864.34;1738938;81;21092;-72
2022/12/09 09:16:40;;;;;;;29.13;17.53;;;;;;;2.27;95.96;99855.70;1736741;81;21025;-74
2022/12/09 09:19:07;;;;;;;29.98;18.55;;;;;;;2.27;95.83;99854.41;1737239;81;21504;-74
2022/12/09 09:21:34;;;;;;;26.90;17.07;;;;;;;2.28;95.98;99851.81;1738227;81;21109;-75
2022/12/09 09:24:04;;;;;;;27.93;17.73;;;;;;;2.34;96.13;99850.88;1730959;81;21017;-73
2022/12/09 09:26:31;;;;;;;27.27;16.67;;;;;;;2.38;96.11;99847.37;1746880;81;21040;-78
2022/12/09 09:28:58;;;;;;;25.73;15.10;;;;;;;2.39;95.93;99847.81;1741290;81;21025;-82
2022/12/09 09:31:25;;;;;;;25.13;16.07;;;;;;;2.41;95.89;99842.16;1742938;81;21098;-72
2022/12/09 09:33:52;;;;;;;23.03;15.50;;;;;;;2.43;95.96;99846.88;1738875;81;21149;-72
2022/12/09 09:36:23;;;;;;;22.83;14.87;;;;;;;2.48;96.13;99845.53;1744590;81;20941;-72
2022/12/09 09:38:54;;;;;;;25.10;14.63;;;;;;;2.48;95.93;99848.97;1694914;81;21048;-74
2022/12/09 09:42:00;;;;;;;20.62;14.05;;;;;;;2.52;96.09;99840.72;1726928;81;21188;-74
2022/12/09 09:44:49;;;;;;;26.63;14.70;;;;;;;2.55;96.10;99842.86;1731435;81;21605;-73
2022/12/09 09:47:33;;;;;;;21.87;14.73;;;;;;;2.56;95.94;99841.13;1754075;81;22568;-81
2022/12/09 09:50:05;;;;;;;23.47;15.03;;;;;;;2.58;96.03;99841.96;1730614;81;21076;-73
2022/12/09 09:52:36;;;;;;;21.57;14.07;;;;;;;2.60;95.95;99839.74;1748542;81;21474;-74
2022/12/09 09:55:13;;;;;;;24.13;13.87;;;;;;;2.61;95.93;99840.63;1751414;81;21037;-74
2022/12/09 09:57:55;;;;;;;22.87;14.50;;;;;;;2.63;95.93;99838.84;1753650;81;21040;-74
2022/12/09 10:00:35;;;;;;;21.97;14.63;;;;;;;2.63;95.95;99837.14;1753234;81;21494;-75
2022/12/09 10:03:23;;;;;;;24.77;15.30;;;;;;;2.65;95.94;99829.34;1753118;81;21474;-74
2022/12/09 10:05:57;;;;;;;27.70;15.43;;;;;;;2.67;96.12;99824.56;1753262;81;21076;-74
2022/12/09 10:08:54;;;;;;;27.20;17.33;;;;;;;2.75;96.36;99823.17;1753225;81;21088;-73
2022/12/09 10:12:03;;;;;;;24.43;16.47;;;;;;;2.80;96.37;99817.49;1753579;81;21025;-74
2022/12/09 10:14:52;;;;;;;;;;;;;;;2.86;96.53;99813.52;1707434;84;21972;-73
2022/12/09 10:17:35;;;;;;;25.63;16.23;;;;;;;2.90;96.40;99806.55;1744611;81;20244;-72
2022/12/09 10:20:22;;;;;;;24.10;14.83;;;;;;;2.96;96.38;99804.30;1753721;81;21020;-73
2022/12/09 10:22:54;;;;;;;25.17;15.80;;;;;;;3.00;96.38;99805.53;1727492;81;21040;-81
2022/12/09 10:25:26;;;;;;;26.77;16.93;;;;;;;3.04;96.29;99803.30;1745477;81;21470;-75
2022/12/09 10:28:22;;;;;;;27.47;17.47;;;;;;;3.06;96.23;99797.66;1724651;81;21190;-76
2022/12/09 10:30:50;;;;;;;27.37;17.63;;;;;;;3.09;96.27;99789.84;1686180;83;21044;-75
2022/12/09 10:33:33;;;;;;;27.13;17.60;;;;;;;3.09;96.16;99787.25;1689637;83;21434;-76
2022/12/09 10:36:01;;;;;;;24.00;16.23;;;;;;;3.07;96.00;99786.86;1688844;83;21040;-76
2022/12/09 10:38:30;;;;;;;26.50;17.07;;;;;;;3.09;96.18;99788.99;1684920;83;21075;-74
2022/12/09 10:44:25;;;;;;;27.30;17.27;;;;;;;3.10;95.94;99779.92;1705993;83;21052;-73
2022/12/09 10:47:08;;;;;;;22.07;15.40;;;;;;;3.05;95.87;99780.43;1710708;83;21025;-74
2022/12/09 10:49:35;;;;;;;20.57;13.27;;;;;;;3.07;96.01;99782.98;1680930;83;21489;-76
2022/12/09 10:52:03;;;;;;;18.07;11.93;;;;;;;3.10;96.09;99782.92;1682653;83;21726;-75
2022/12/09 10:54:43;;;;;;;18.27;13.23;;;;;;;3.10;96.00;99777.74;1685555;83;22758;-76
2022/12/09 10:57:17;;;;;;;19.57;12.47;;;;;;;3.10;96.00;99777.33;1692478;83;21545;-77
2022/12/09 11:00:20;;;;;;;20.60;13.87;;;;;;;3.09;95.92;99768.28;1690606;83;21045;-73
2022/12/09 11:02:54;;;;;;;22.80;13.13;;;;;;;3.06;95.83;99767.04;1683315;83;21052;-74
2022/12/09 11:05:28;;;;;;;18.13;12.53;;;;;;;3.05;95.78;99768.78;1683560;83;21060;-75
2022/12/09 11:07:57;;;;;;;25.67;14.97;;;;;;;3.05;95.76;99761.02;1683634;83;21121;-73
2022/12/09 11:10:28;;;;;;;23.03;15.30;;;;;;;3.09;95.83;99757.92;1683913;83;21458;-77
2022/12/09 11:13:08;;;;;;;25.83;16.23;;;;;;;3.15;95.89;99759.55;1682466;83;21080;-76
2022/12/09 11:15:42;;;;;;;25.40;16.12;;;;;;;3.20;95.99;99762.92;1688886;83;21044;-71
2022/12/09 11:18:29;;;;;;;25.03;15.97;;;;;;;3.25;96.07;99751.60;1683605;83;21049;-77
2022/12/09 11:21:00;;;;;;;28.57;17.27;;;;;;;3.26;95.89;99752.00;1682222;83;21188;-72
2022/12/09 11:23:28;;;;;;;26.20;16.63;;;;;;;3.22;95.52;99746.48;1683046;83;21092;-74
2022/12/09 11:26:08;;;;;;;29.50;17.80;;;;;;;3.22;95.73;99753.41;1683323;83;21032;-75
2022/12/09 11:28:39;;;;;;;28.00;18.73;;;;;;;3.21;95.56;99751.22;1681729;83;21052;-76
2022/12/09 11:31:19;;;;;;;29.23;17.57;;;;;;;3.21;95.59;99743.91;1701160;83;21057;-74
2022/12/09 11:33:57;;;;;;;27.67;18.52;;;;;;;3.23;95.48;99748.63;1683920;83;21164;-75
2022/12/09 11:36:37;;;;;;;27.63;18.00;;;;;;;3.18;95.43;99743.95;1682976;83;21013;-83
2022/12/09 11:39:27;;;;;;;30.70;18.65;;;;;;;3.13;95.17;99743.61;1683207;83;21088;-76
2022/12/09 11:42:13;;;;;;;;;;;;;;;3.13;95.27;99741.44;1682030;83;21052;-72
2022/12/09 11:45:03;;;;;;;28.23;16.70;;;;;;;3.09;95.36;99740.64;1684740;83;21173;-73
2022/12/09 11:47:37;;;;;;;;;;;;;;;3.10;95.47;99742.79;1687043;83;21326;-73
2022/12/09 11:50:35;;;;;;;29.23;18.03;;;;;;;3.11;95.44;99735.45;1685212;83;20498;-83